Clarinda Municipal Airport
Tuesday 9:35 AM
Weather Sunny
VFR
Temperature 68°
Dew Point 52°
Feels Like 68°
Relative Humidity 56
%
Visibility 10
mi
Pressure 1020.3
mb
Wind Direction W
Wind Speed 8
mph
Last Hour Precip 0.00
"
KICL 281435Z AUTO 26007KT 10SM CLR 20/11 A3013 RMK AO2

Recent Observations

Time Present Weather Temp DP Feels RH% Vsby Pressure Ceiling Direction Speed Gust 1h Precip
9:35AM
VFR
68° 52° 68° 56
%
10
mi
1020.3
mb
None W 8
mph
0.00"
KICL 281435Z AUTO 26007KT 10SM CLR 20/11 A3013 RMK AO2
9:15AM
VFR
66° 54° 66° 64
%
10
mi
1020.3
mb
None W 6
mph
0.00"
KICL 281415Z AUTO 28005KT 10SM CLR 19/12 A3013 RMK AO2
8:55AM
VFR
66° 52° 66° 60
%
10
mi
1020.3
mb
None W 6
mph
0.00"
KICL 281355Z AUTO 27005KT 10SM CLR 19/11 A3013 RMK AO2
8:35AM
VFR
64° 52° 64° 64
%
10
mi
1020.3
mb
None W 7
mph
0.00"
KICL 281335Z AUTO 26006KT 10SM CLR 18/11 A3013 RMK AO2
8:15AM
VFR
63° 54° 63° 72
%
10
mi
1020.3
mb
None W 6
mph
0.00"
KICL 281315Z AUTO 26005KT 10SM CLR 17/12 A3013 RMK AO2
7:55AM
VFR
59° 55° 59° 88
%
10
mi
1020.0
mb
None None Calm 0.00"
KICL 281255Z AUTO 00000KT 10SM CLR 15/13 A3012 RMK AO2
7:35AM
VFR
55° 55° 55° 100
%
10
mi
1020.3
mb
None None Calm 0.00"
KICL 281235Z AUTO 00000KT 10SM CLR 13/13 A3013 RMK AO2
7:15AM
VFR
54° 54° 54° 100
%
10
mi
1020.3
mb
None None Calm 0.00"
KICL 281215Z AUTO 00000KT 10SM CLR 12/12 A3013 RMK AO2
6:55AM
VFR
52° 52° 52° 100
%
10
mi
1020.0
mb
None SSW 5
mph
0.00"
KICL 281155Z AUTO 20004KT 10SM CLR 11/11 A3012 RMK AO2
6:35AM
VFR
50° 50° 50° 100
%
10
mi
1020.0
mb
None SSW 3
mph
0.00"
KICL 281135Z AUTO 20003KT 10SM CLR 10/10 A3012 RMK AO2
6:15AM
VFR
48° 48° 47° 100
%
10
mi
1019.6
mb
None S 3
mph
0.00"
KICL 281115Z AUTO 19003KT 10SM CLR 09/09 A3011 RMK AO2
5:55AM
VFR
48° 48° 48° 100
%
10
mi
1019.6
mb
None None Calm 0.00"
KICL 281055Z AUTO 00000KT 10SM CLR 09/09 A3011 RMK AO2
5:35AM
VFR
52° 52° 52° 100
%
10
mi
1019.6
mb
None None Calm 0.00"
KICL 281035Z AUTO 00000KT 10SM CLR 11/11 A3011 RMK AO2
5:15AM
VFR
52° 52° 52° 100
%
10
mi
1019.6
mb
None None Calm 0.00"
KICL 281015Z AUTO 00000KT 10SM CLR 11/11 A3011 RMK AO2
4:55AM
VFR
52° 50° 52° 94
%
10
mi
1019.3
mb
None None Calm 0.00"
KICL 280955Z AUTO 00000KT 10SM CLR 11/10 A3010 RMK AO2
4:35AM
VFR
54° 10
mi
1019.3
mb
None None Calm 0.00"
KICL 280935Z AUTO 00000KT 10SM CLR 12/ A3010 RMK AO2
4:15AM
VFR
57° 10
mi
1019.0
mb
None NNE 5
mph
0.00"
KICL 280915Z AUTO 03004KT 10SM CLR 14/ A3009 RMK AO2
3:55AM
VFR
55° 10
mi
1018.6
mb
None NNE 6
mph
0.00"
KICL 280855Z AUTO 03005KT 10SM CLR 13/ A3008 RMK AO2
3:35AM
VFR
57° 10
mi
1018.6
mb
None None Calm 0.00"
KICL 280835Z AUTO 00000KT 10SM CLR 14/ A3008 RMK AO2
3:15AM
VFR
61° 10
mi
1018.3
mb
None NNW 6
mph
0.00"
KICL 280815Z AUTO 33005KT 10SM CLR 16/ A3007 RMK AO2
Click here to show this page without METARs/TAFs included